createdAt,value
2023-01-25T00:01:38.655Z,15.38
2023-01-25T00:04:05.130Z,13.73
2023-01-25T00:06:31.628Z,17.42
2023-01-25T00:08:58.092Z,17.10
2023-01-25T00:11:24.563Z,15.57
2023-01-25T00:13:53.912Z,17.75
2023-01-25T00:16:20.964Z,16.27
2023-01-25T00:18:48.558Z,13.82
2023-01-25T00:21:23.067Z,17.30
2023-01-25T00:23:50.387Z,15.63
2023-01-25T00:26:18.269Z,11.75
2023-01-25T00:28:55.032Z,13.23
2023-01-25T00:31:48.281Z,13.13
2023-01-25T00:34:26.801Z,16.13
2023-01-25T00:36:58.497Z,18.05
2023-01-25T00:39:26.981Z,15.98
2023-01-25T00:41:53.663Z,18.73
2023-01-25T00:44:20.465Z,17.48
2023-01-25T00:46:47.139Z,16.67
2023-01-25T00:49:26.023Z,16.10
2023-01-25T00:51:54.336Z,16.60
2023-01-25T00:54:21.990Z,16.35
2023-01-25T00:56:49.096Z,11.75
2023-01-25T00:59:15.678Z,12.82
2023-01-25T01:01:42.516Z,13.80
2023-01-25T01:04:09.303Z,12.82
2023-01-25T01:06:36.807Z,15.43
2023-01-25T01:09:03.749Z,16.85
2023-01-25T01:11:31.753Z,17.80
2023-01-25T01:13:59.484Z,16.92
2023-01-25T01:16:26.577Z,17.73
2023-01-25T01:18:53.116Z,14.75
2023-01-25T01:21:19.864Z,16.65
2023-01-25T01:23:46.608Z,18.85
2023-01-25T01:26:15.095Z,17.02
2023-01-25T01:28:42.692Z,14.77
2023-01-25T01:31:15.010Z,12.35
2023-01-25T01:33:41.622Z,17.65
2023-01-25T01:36:13.799Z,13.93
2023-01-25T01:38:40.762Z,16.85
2023-01-25T01:41:08.019Z,13.70
2023-01-25T01:43:35.413Z,13.90
2023-01-25T01:46:12.060Z,13.68
2023-01-25T01:48:43.090Z,13.82
2023-01-25T01:53:52.847Z,16.42
2023-01-25T01:56:26.631Z,15.10
2023-01-25T01:58:55.794Z,13.10
2023-01-25T02:01:22.391Z,15.52
2023-01-25T02:03:50.590Z,14.27
2023-01-25T02:06:27.567Z,14.85
2023-01-25T02:08:54.644Z,12.93
2023-01-25T02:11:21.911Z,13.40
2023-01-25T02:13:49.149Z,11.57
2023-01-25T02:16:24.684Z,12.27
2023-01-25T02:18:52.380Z,13.90
2023-01-25T02:21:18.995Z,14.18
2023-01-25T02:23:54.173Z,16.42
2023-01-25T02:26:22.532Z,16.63
2023-01-25T02:28:54.661Z,16.30
2023-01-25T02:31:21.458Z,18.50
2023-01-25T02:33:48.010Z,15.82
2023-01-25T02:36:16.903Z,17.77
2023-01-25T02:38:50.370Z,17.63
2023-01-25T02:41:25.586Z,15.68
2023-01-25T02:43:52.210Z,14.73
2023-01-25T02:46:18.729Z,13.38
2023-01-25T02:48:45.282Z,13.98
2023-01-25T02:51:12.088Z,12.68
2023-01-25T02:53:38.548Z,12.75
2023-01-25T02:56:05.364Z,14.57
2023-01-25T02:58:31.870Z,11.32
2023-01-25T03:00:59.079Z,16.17
2023-01-25T03:03:25.600Z,12.13
2023-01-25T03:05:52.084Z,14.55
2023-01-25T03:08:18.586Z,14.77
2023-01-25T03:10:45.088Z,12.98
2023-01-25T03:13:11.579Z,16.67
2023-01-25T03:15:38.095Z,15.10
2023-01-25T03:18:04.682Z,17.95
2023-01-25T03:20:31.186Z,14.35
2023-01-25T03:22:57.680Z,13.43
2023-01-25T03:25:24.161Z,10.73
2023-01-25T03:27:50.624Z,11.10
2023-01-25T03:30:17.121Z,17.23
2023-01-25T03:32:43.565Z,12.07
2023-01-25T03:35:10.369Z,16.23
2023-01-25T03:37:36.990Z,16.02
2023-01-25T03:40:03.897Z,17.02
2023-01-25T03:42:30.636Z,12.98
2023-01-25T03:44:57.107Z,14.30
2023-01-25T03:47:23.691Z,16.42
2023-01-25T03:49:50.116Z,16.40
2023-01-25T03:52:16.833Z,14.57
2023-01-25T03:54:43.308Z,15.13
2023-01-25T03:57:09.793Z,17.55
2023-01-25T03:59:36.254Z,14.18
2023-01-25T04:02:03.006Z,18.60
2023-01-25T04:04:29.717Z,15.10
2023-01-25T04:06:56.170Z,18.38
2023-01-25T04:09:22.685Z,15.60
2023-01-25T04:11:50.927Z,14.18
2023-01-25T04:14:20.919Z,14.90
2023-01-25T04:16:52.294Z,14.68
2023-01-25T04:19:18.782Z,11.75
2023-01-25T04:21:45.192Z,11.00
2023-01-25T04:24:11.953Z,14.77
2023-01-25T04:26:38.533Z,14.25
2023-01-25T04:29:05.036Z,17.95
2023-01-25T04:31:31.625Z,14.15
2023-01-25T04:33:58.138Z,11.88
2023-01-25T04:36:24.641Z,13.60
2023-01-25T04:38:51.139Z,11.15
2023-01-25T04:41:17.596Z,13.40
2023-01-25T04:43:44.149Z,16.90
2023-01-25T04:46:10.688Z,12.75
2023-01-25T04:48:37.127Z,12.40
2023-01-25T04:51:03.642Z,18.52
2023-01-25T04:53:30.128Z,17.40
2023-01-25T04:55:56.587Z,19.17
2023-01-25T04:58:23.040Z,18.85
2023-01-25T05:00:49.557Z,17.90
2023-01-25T05:03:16.060Z,18.80
2023-01-25T05:05:48.541Z,18.95
2023-01-25T05:08:15.037Z,18.95
2023-01-25T05:10:41.530Z,16.40
2023-01-25T05:13:07.983Z,18.58
2023-01-25T05:15:34.417Z,20.17
2023-01-25T05:18:00.921Z,20.30
2023-01-25T05:20:27.378Z,19.08
2023-01-25T05:22:53.828Z,16.63
2023-01-25T05:25:38.616Z,19.33
2023-01-25T05:28:09.236Z,17.00
2023-01-25T05:30:35.907Z,18.02
2023-01-25T05:33:02.396Z,17.73
2023-01-25T05:35:28.898Z,16.30
2023-01-25T05:37:59.174Z,19.25
2023-01-25T05:40:26.590Z,12.95
2023-01-25T05:42:57.725Z,12.35
2023-01-25T05:47:55.413Z,12.93
2023-01-25T05:50:22.711Z,10.82
2023-01-25T05:52:49.193Z,10.73
2023-01-25T05:55:16.336Z,11.55
2023-01-25T05:57:43.190Z,15.25
2023-01-25T06:00:11.229Z,15.48
2023-01-25T06:02:38.091Z,15.35
2023-01-25T06:05:04.987Z,9.85
2023-01-25T06:07:38.607Z,12.75
2023-01-25T06:10:05.563Z,16.17
2023-01-25T06:12:33.066Z,11.98
2023-01-25T06:14:59.511Z,10.27
2023-01-25T06:17:26.160Z,11.32
2023-01-25T06:19:52.658Z,16.65
2023-01-25T06:22:19.090Z,15.00
2023-01-25T06:24:45.528Z,15.43
2023-01-25T06:27:12.768Z,16.30
2023-01-25T06:29:39.323Z,15.98
2023-01-25T06:32:05.818Z,11.07
2023-01-25T06:34:32.263Z,11.43
2023-01-25T06:36:58.763Z,9.43
2023-01-25T06:39:25.313Z,14.30
2023-01-25T06:41:51.784Z,10.13
2023-01-25T06:44:18.246Z,12.88
2023-01-25T06:46:44.732Z,12.73
2023-01-25T06:49:11.305Z,14.82
2023-01-25T06:51:37.760Z,14.23
2023-01-25T06:54:04.541Z,13.25
2023-01-25T06:56:32.735Z,15.10
2023-01-25T06:58:59.298Z,15.27
2023-01-25T07:01:27.506Z,14.10
2023-01-25T07:03:55.902Z,15.52
2023-01-25T07:06:23.248Z,17.23
2023-01-25T07:08:50.078Z,16.42
2023-01-25T07:11:18.964Z,15.65
2023-01-25T07:13:47.019Z,16.98
2023-01-25T07:16:19.237Z,18.88
2023-01-25T07:18:45.830Z,14.70
2023-01-25T07:21:15.201Z,13.02
2023-01-25T07:23:42.334Z,13.02
2023-01-25T07:26:20.956Z,22.40
2023-01-25T07:28:48.201Z,15.32
2023-01-25T07:31:15.673Z,20.63
2023-01-25T07:33:43.676Z,16.33
2023-01-25T07:36:11.436Z,14.88
2023-01-25T07:38:37.999Z,16.77
2023-01-25T07:41:05.365Z,14.60
2023-01-25T07:43:32.239Z,12.10
2023-01-25T07:46:08.236Z,16.30
2023-01-25T07:48:34.731Z,11.93
2023-01-25T07:51:12.123Z,11.02
2023-01-25T07:53:40.228Z,18.38
2023-01-25T07:56:07.893Z,13.50
2023-01-25T07:58:34.441Z,13.30
2023-01-25T08:01:08.530Z,12.85
2023-01-25T08:03:35.111Z,10.00
2023-01-25T08:06:01.896Z,12.93
2023-01-25T08:08:28.391Z,20.30
2023-01-25T08:10:54.869Z,17.27
2023-01-25T08:13:21.300Z,18.05
2023-01-25T08:15:53.961Z,21.45
2023-01-25T08:18:20.450Z,17.88
2023-01-25T08:20:47.617Z,20.33
2023-01-25T08:23:14.192Z,20.05
2023-01-25T08:25:40.722Z,13.57
2023-01-25T08:28:07.906Z,14.85
2023-01-25T08:30:34.852Z,18.45
2023-01-25T08:33:02.086Z,21.58
2023-01-25T08:35:28.557Z,13.93
2023-01-25T08:37:55.011Z,19.52
2023-01-25T08:40:21.508Z,12.48
2023-01-25T08:42:48.509Z,13.98
2023-01-25T08:45:15.014Z,15.43
2023-01-25T08:47:41.493Z,14.10
2023-01-25T08:50:08.872Z,12.52
2023-01-25T08:52:35.715Z,12.73
2023-01-25T08:55:02.244Z,16.30
2023-01-25T08:57:28.836Z,15.73
2023-01-25T08:59:55.333Z,11.43
2023-01-25T09:02:21.863Z,11.45
2023-01-25T09:04:48.355Z,15.13
2023-01-25T09:07:14.843Z,14.13
2023-01-25T09:09:41.352Z,12.18
2023-01-25T09:12:09.982Z,14.43
2023-01-25T09:14:38.434Z,15.10
2023-01-25T09:17:04.836Z,14.40
2023-01-25T09:19:31.375Z,16.38
2023-01-25T09:21:57.934Z,14.90
2023-01-25T09:24:24.425Z,16.23
2023-01-25T09:26:59.451Z,23.17
2023-01-25T09:29:26.958Z,20.63
2023-01-25T09:31:53.600Z,18.52
2023-01-25T09:34:20.443Z,14.70
2023-01-25T09:36:47.076Z,21.40
2023-01-25T09:39:13.671Z,21.23
2023-01-25T09:41:49.816Z,19.77
2023-01-25T09:44:31.694Z,18.00
2023-01-25T09:47:02.087Z,19.70
2023-01-25T09:50:01.348Z,14.88
2023-01-25T09:52:50.795Z,18.15
2023-01-25T09:55:20.589Z,20.83
2023-01-25T09:57:48.362Z,14.75
2023-01-25T10:00:20.780Z,11.52
2023-01-25T10:02:59.647Z,11.73
2023-01-25T10:05:31.165Z,13.48
2023-01-25T10:08:03.684Z,20.50
2023-01-25T10:10:35.813Z,14.70
2023-01-25T10:13:05.468Z,20.05
2023-01-25T10:15:39.874Z,16.80
2023-01-25T10:18:24.563Z,14.05
2023-01-25T10:20:57.061Z,16.52
2023-01-25T10:23:29.392Z,22.27
2023-01-25T10:26:01.419Z,14.48
2023-01-25T10:28:47.835Z,21.92
2023-01-25T10:31:29.377Z,13.07
2023-01-25T10:33:56.948Z,15.45
2023-01-25T10:36:30.048Z,18.63
2023-01-25T10:39:01.641Z,13.60
2023-01-25T10:41:42.215Z,14.75
2023-01-25T10:44:28.900Z,19.83
2023-01-25T10:47:01.333Z,18.27
2023-01-25T10:49:34.511Z,14.80
2023-01-25T10:52:30.227Z,12.45
2023-01-25T10:55:23.607Z,19.48
2023-01-25T10:57:53.164Z,20.90
2023-01-25T11:00:19.772Z,19.10
2023-01-25T11:02:48.180Z,17.83
2023-01-25T11:05:34.356Z,12.85
2023-01-25T11:08:32.299Z,12.88
2023-01-25T11:10:59.941Z,12.00
2023-01-25T11:13:33.117Z,21.65
2023-01-25T11:16:04.978Z,14.18
2023-01-25T11:18:35.068Z,20.23
2023-01-25T11:21:12.432Z,17.35
2023-01-25T11:26:12.626Z,13.93
2023-01-25T11:28:39.532Z,20.20
2023-01-25T11:31:11.542Z,16.10
2023-01-25T11:33:38.868Z,14.15
2023-01-25T11:36:08.459Z,20.58
2023-01-25T11:38:35.856Z,18.08
2023-01-25T11:41:31.198Z,11.43
2023-01-25T11:44:26.929Z,13.45
2023-01-25T11:47:04.627Z,17.58
2023-01-25T11:49:45.915Z,15.18
2023-01-25T11:52:21.961Z,23.35
2023-01-25T11:54:56.192Z,16.67
2023-01-25T11:57:48.551Z,20.52
2023-01-25T12:00:27.620Z,19.67
2023-01-25T12:03:20.533Z,21.45
2023-01-25T12:06:12.026Z,19.40
2023-01-25T12:08:53.762Z,18.55
2023-01-25T12:11:33.476Z,15.13
2023-01-25T12:14:41.709Z,20.75
2023-01-25T12:17:36.489Z,22.80
2023-01-25T12:20:31.490Z,20.35
2023-01-25T12:23:12.965Z,18.33
2023-01-25T12:26:12.853Z,15.73
2023-01-25T12:28:54.657Z,19.80
2023-01-25T12:31:34.656Z,13.45
2023-01-25T12:34:12.029Z,17.92
2023-01-25T12:39:24.439Z,22.13
2023-01-25T12:41:58.873Z,17.38
2023-01-25T12:44:35.099Z,13.77
2023-01-25T12:47:40.424Z,20.70
2023-01-25T12:50:25.187Z,16.25
2023-01-25T12:52:56.514Z,15.18
2023-01-25T12:55:23.233Z,15.38
2023-01-25T12:58:14.397Z,24.48
2023-01-25T13:01:19.201Z,24.45
2023-01-25T13:04:14.868Z,24.73
2023-01-25T13:07:27.477Z,25.00
2023-01-25T13:10:05.919Z,24.38
2023-01-25T13:12:55.062Z,22.27
2023-01-25T13:15:40.035Z,18.52
2023-01-25T13:18:24.758Z,18.25
2023-01-25T13:20:54.095Z,24.85
2023-01-25T13:23:50.706Z,25.90
2023-01-25T13:26:28.400Z,26.73
2023-01-25T13:28:56.430Z,23.38
2023-01-25T13:31:51.117Z,25.98
2023-01-25T13:34:37.350Z,24.17
2023-01-25T13:37:31.682Z,24.63
2023-01-25T13:40:06.799Z,20.38
2023-01-25T13:42:36.325Z,24.10
2023-01-25T13:45:15.564Z,22.85
2023-01-25T13:47:43.870Z,25.13
2023-01-25T13:50:27.701Z,24.92
2023-01-25T13:53:01.115Z,16.27
2023-01-25T13:55:29.427Z,17.38
2023-01-25T13:58:23.788Z,16.02
2023-01-25T14:00:55.197Z,13.82
2023-01-25T14:03:26.755Z,22.45
2023-01-25T14:05:56.343Z,23.33
2023-01-25T14:08:25.232Z,20.10
2023-01-25T14:10:52.870Z,15.73
2023-01-25T14:13:19.634Z,21.77
2023-01-25T14:16:00.568Z,21.00
2023-01-25T14:18:30.460Z,23.05
2023-01-25T14:21:19.210Z,21.73
2023-01-25T14:23:46.579Z,20.83
2023-01-25T14:26:25.050Z,15.27
2023-01-25T14:29:02.354Z,18.85
2023-01-25T14:31:34.669Z,22.50
2023-01-25T14:34:04.889Z,17.13
2023-01-25T14:36:34.636Z,19.75
2023-01-25T14:39:03.209Z,21.60
2023-01-25T14:41:43.769Z,20.83
2023-01-25T14:44:16.031Z,19.23
2023-01-25T14:46:42.521Z,19.95
2023-01-25T14:49:13.071Z,18.85
2023-01-25T14:51:44.997Z,16.95
2023-01-25T14:54:16.995Z,17.30
2023-01-25T14:56:53.108Z,18.98
2023-01-25T14:59:28.643Z,19.80
2023-01-25T15:01:59.382Z,16.58
2023-01-25T15:04:26.255Z,11.30
2023-01-25T15:06:57.437Z,13.63
2023-01-25T15:09:38.010Z,17.85
2023-01-25T15:12:23.012Z,15.07
2023-01-25T15:14:53.915Z,16.75
2023-01-25T15:17:43.396Z,16.23
2023-01-25T15:20:29.775Z,16.88
2023-01-25T15:22:59.270Z,15.90
2023-01-25T15:25:25.833Z,15.95
2023-01-25T15:27:52.530Z,18.75
2023-01-25T15:30:19.155Z,17.70
2023-01-25T15:32:46.773Z,11.75
2023-01-25T15:35:15.729Z,13.07
2023-01-25T15:37:42.299Z,16.38
2023-01-25T15:40:10.836Z,21.17
2023-01-25T15:42:37.764Z,19.13
2023-01-25T15:45:06.773Z,16.35
2023-01-25T15:47:33.448Z,16.60
2023-01-25T15:49:59.920Z,13.57
2023-01-25T15:52:26.471Z,9.05
2023-01-25T15:55:01.449Z,9.35
2023-01-25T15:57:31.736Z,12.88
2023-01-25T16:00:01.139Z,9.57
2023-01-25T16:02:28.770Z,16.85
2023-01-25T16:04:55.378Z,12.75
2023-01-25T16:07:31.762Z,8.80
2023-01-25T16:09:58.282Z,13.13
2023-01-25T16:12:25.606Z,14.57
2023-01-25T16:14:52.101Z,10.23
2023-01-25T16:17:21.904Z,7.53
2023-01-25T16:19:48.732Z,9.63
2023-01-25T16:22:15.613Z,12.82
2023-01-25T16:24:43.476Z,13.25
2023-01-25T16:27:26.923Z,12.95
2023-01-25T16:29:53.481Z,12.23
2023-01-25T16:32:20.013Z,12.00
2023-01-25T16:34:46.792Z,12.02
2023-01-25T16:37:18.461Z,13.13
2023-01-25T16:39:45.344Z,10.20
2023-01-25T16:42:12.140Z,9.80
2023-01-25T16:44:39.023Z,13.63
2023-01-25T16:47:05.793Z,14.05
2023-01-25T16:49:33.508Z,10.73
2023-01-25T16:52:02.923Z,9.07
2023-01-25T16:54:29.496Z,7.07
2023-01-25T16:56:56.115Z,10.88
2023-01-25T16:59:24.485Z,11.65
2023-01-25T17:01:51.066Z,15.95
2023-01-25T17:04:18.439Z,11.50
2023-01-25T17:06:48.465Z,9.02
2023-01-25T17:09:23.600Z,12.30
2023-01-25T17:11:51.277Z,11.57
2023-01-25T17:14:21.285Z,11.85
2023-01-25T17:16:51.384Z,12.07
2023-01-25T17:19:19.096Z,10.60
2023-01-25T17:21:46.319Z,11.20
2023-01-25T17:24:15.419Z,14.63
2023-01-25T17:26:42.279Z,7.88
2023-01-25T17:29:10.232Z,12.75
2023-01-25T17:31:37.608Z,9.32
2023-01-25T17:34:07.161Z,13.63
2023-01-25T17:36:34.094Z,11.13
2023-01-25T17:39:05.481Z,12.52
2023-01-25T17:41:32.640Z,13.05
2023-01-25T17:43:59.307Z,12.32
2023-01-25T17:46:33.278Z,11.35
2023-01-25T17:49:02.164Z,12.73
2023-01-25T17:51:28.852Z,9.43
2023-01-25T17:53:55.459Z,13.45
2023-01-25T17:56:22.011Z,14.18
2023-01-25T17:58:49.103Z,14.48
2023-01-25T18:01:20.752Z,15.35
2023-01-25T18:03:49.067Z,19.70
2023-01-25T18:06:18.780Z,15.48
2023-01-25T18:08:50.382Z,13.00
2023-01-25T18:11:20.406Z,20.65
2023-01-25T18:13:52.717Z,16.05
2023-01-25T18:16:23.529Z,16.95
2023-01-25T18:18:52.394Z,13.82
2023-01-25T18:21:24.201Z,15.05
2023-01-25T18:23:53.235Z,18.77
2023-01-25T18:26:26.184Z,20.50
2023-01-25T18:29:25.953Z,16.83
2023-01-25T18:31:53.151Z,20.15
2023-01-25T18:34:19.725Z,17.67
2023-01-25T18:36:46.300Z,19.05
2023-01-25T18:39:12.801Z,16.77
2023-01-25T18:41:39.273Z,12.55
2023-01-25T18:44:06.075Z,19.00
2023-01-25T18:46:32.880Z,17.98
2023-01-25T18:48:59.447Z,12.23
2023-01-25T18:51:26.740Z,21.65
2023-01-25T18:53:53.775Z,20.35
2023-01-25T18:56:21.603Z,21.63
2023-01-25T18:58:50.078Z,21.73
2023-01-25T19:01:22.011Z,20.90
2023-01-25T19:03:49.739Z,23.10
2023-01-25T19:06:17.122Z,22.15
2023-01-25T19:08:46.500Z,22.23
2023-01-25T19:11:15.420Z,21.90
2023-01-25T19:13:43.340Z,20.85
2023-01-25T19:16:20.911Z,20.80
2023-01-25T19:18:50.079Z,19.42
2023-01-25T19:21:19.143Z,15.93
2023-01-25T19:23:45.971Z,14.88
2023-01-25T19:26:17.844Z,12.35
2023-01-25T19:28:45.246Z,19.58
2023-01-25T19:31:17.342Z,15.02
2023-01-25T19:33:45.039Z,16.75
2023-01-25T19:36:19.134Z,15.93
2023-01-25T19:38:47.379Z,14.13
2023-01-25T19:41:16.546Z,20.08
2023-01-25T19:43:43.719Z,15.02
2023-01-25T19:46:14.042Z,24.23
2023-01-25T19:48:41.725Z,18.17
2023-01-25T19:51:18.901Z,23.85
2023-01-25T19:53:47.552Z,17.92
2023-01-25T19:56:16.351Z,26.45
2023-01-25T19:58:44.386Z,24.00
2023-01-25T20:01:29.580Z,26.13
2023-01-25T20:03:57.981Z,22.83
2023-01-25T20:06:26.094Z,24.92
2023-01-25T20:08:53.199Z,27.17
2023-01-25T20:11:24.601Z,20.65
2023-01-25T20:13:53.843Z,21.80
2023-01-25T20:16:20.662Z,24.90
2023-01-25T20:18:48.892Z,19.60
2023-01-25T20:21:17.704Z,25.23
2023-01-25T20:23:46.217Z,21.52
2023-01-25T20:26:17.920Z,25.35
2023-01-25T20:28:46.760Z,24.85
2023-01-25T20:31:37.783Z,25.45
2023-01-25T20:34:09.897Z,26.13
2023-01-25T20:36:36.616Z,23.38
2023-01-25T20:39:04.420Z,22.42
2023-01-25T20:41:30.958Z,23.88
2023-01-25T20:44:07.082Z,26.42
2023-01-25T20:46:35.135Z,23.58
2023-01-25T20:49:02.247Z,26.73
2023-01-25T20:51:29.539Z,24.50
2023-01-25T20:53:56.437Z,24.00
2023-01-25T20:56:23.268Z,22.90
2023-01-25T20:58:50.845Z,23.40
2023-01-25T21:01:24.612Z,25.90
2023-01-25T21:03:54.323Z,18.60
2023-01-25T21:06:20.858Z,22.10
2023-01-25T21:08:47.418Z,21.20
2023-01-25T21:11:14.566Z,18.35
2023-01-25T21:13:41.655Z,23.50
2023-01-25T21:16:12.970Z,27.50
2023-01-25T21:21:08.907Z,21.75
2023-01-25T21:23:37.592Z,20.92
2023-01-25T21:26:05.950Z,24.77
2023-01-25T21:28:33.860Z,24.30
2023-01-25T21:31:14.938Z,23.58
2023-01-25T21:33:41.703Z,23.77
2023-01-25T21:36:11.460Z,24.23
2023-01-25T21:38:39.501Z,22.55
2023-01-25T21:41:11.169Z,15.15
2023-01-25T21:43:56.553Z,19.75
2023-01-25T21:46:25.695Z,17.65
2023-01-25T21:49:12.972Z,23.58
2023-01-25T21:51:46.991Z,22.08
2023-01-25T21:54:24.647Z,22.48
2023-01-25T21:56:56.048Z,20.55
2023-01-25T21:59:23.320Z,20.60
2023-01-25T22:01:51.373Z,15.40
2023-01-25T22:04:19.778Z,13.25
2023-01-25T22:06:48.598Z,12.85
2023-01-25T22:09:15.593Z,23.58
2023-01-25T22:11:42.281Z,18.50
2023-01-25T22:14:08.809Z,20.13
2023-01-25T22:16:35.440Z,24.88
2023-01-25T22:19:01.972Z,21.48
2023-01-25T22:21:31.994Z,18.75
2023-01-25T22:24:00.679Z,17.95
2023-01-25T22:26:33.159Z,15.55
2023-01-25T22:29:00.501Z,15.23
2023-01-25T22:31:29.988Z,22.52
2023-01-25T22:33:58.378Z,29.00
2023-01-25T22:36:27.631Z,20.85
2023-01-25T22:38:54.751Z,21.65
2023-01-25T22:41:24.578Z,19.88
2023-01-25T22:43:51.649Z,18.58
2023-01-25T22:46:20.783Z,23.83
2023-01-25T22:48:47.678Z,19.92
2023-01-25T22:51:17.465Z,19.10
2023-01-25T22:53:44.500Z,20.50
2023-01-25T22:56:13.130Z,17.73
2023-01-25T22:58:41.699Z,18.08
2023-01-25T23:01:10.041Z,14.32
2023-01-25T23:03:36.982Z,17.65
2023-01-25T23:06:07.082Z,23.25
2023-01-25T23:08:35.525Z,24.55
2023-01-25T23:11:04.163Z,26.38
2023-01-25T23:13:32.122Z,22.08
2023-01-25T23:16:03.082Z,21.90
2023-01-25T23:18:48.710Z,18.20
2023-01-25T23:21:16.264Z,17.55
2023-01-25T23:23:43.233Z,25.63
2023-01-25T23:26:09.834Z,24.73
2023-01-25T23:28:37.267Z,24.33
2023-01-25T23:31:21.498Z,21.20
2023-01-25T23:33:55.972Z,21.60
2023-01-25T23:36:25.217Z,27.58
2023-01-25T23:38:52.544Z,25.55
2023-01-25T23:41:21.541Z,27.45
2023-01-25T23:43:49.064Z,23.70
2023-01-25T23:46:17.014Z,25.63
2023-01-25T23:48:44.798Z,23.92
2023-01-25T23:51:12.659Z,24.27
2023-01-25T23:53:39.589Z,23.73
2023-01-25T23:56:09.189Z,22.58
2023-01-25T23:58:37.115Z,25.17
